Accueil
METAR-TAF:

METAR-TAF

Aéroports :

Wittering, Angleterre

latitude: 52-37N, longitude: 000-28W, altitude: 84 m

Observation

Le bulletin a été fait il y a 24 minutes, à 23:50 UTC
Vent 7 kt de nord
Température 12°C
Humidité 71%
Pression 1023 hPa
Visibilité 10 km ou plus

METAR: EGXT 202350Z AUTO 01007KT 9999 BKN060/// 12/07 Q1023

Heure: 01:14 (00:14 UTC)

Prévision

Le bulletin a été fait il y a 10 heures et 34 minutes, à 13:40 UTC
Prévision valable du 20 à 15 UTC au 20 à 18 UTC
Vent 7 kt de ouest/nord-ouest
Visibilité 10 km ou plus
pas de nuages en-dessous de 1500 mètres et pas de cumulonimbus.

TAF: EGXT 201340Z 2015/2018 29007KT CAVOK

Observations et prévisions météorologiques de plus de 4000 aéroports (messages METAR et TAF).

Les stations disponibles sont représentées par des disques jaunes et rouges sur la carte.

Passer la souris dessus pour voir le nom de la station.

Cliquer dessus pour voir les observations et prévisions météorologiques.

Pour changer de carte: cliquez sur les boutons verts avec une croix noire pour zoomer, sur le bouton vert avec un tiret pour effectuer un zoom arrière, ou sur les flèches vertes pour les cartes adjacentes.


METAR-TAF: